Reading Regional Carl A Spaatz Field
KRDG : now visible

Airfield :











YOU CAN JOIN US ON...

 
LOGIN :

Register | Disclaimer

   EN    FR    IT 

 









Legend :    VFR   Marginal VFR   IFR   Intensive IFR   Very Intensive IFR
Visi :
Ceiling :
>= 8 km
>= 3000ft
5 to 8 km
1000 to 3000 ft
1500m to 5 km
500 to 1000 ft
800 to 1500m
200 to 500 ft
< 800m
< 200 ft
Symbols :   Thunderstorms  Fog  Heavy snow  Heavy precipitations  Wind > 20 kt






- Airport Elevation : 344 ft
- IATA code : RDG


KRDG - Reading Regional Carl A Spaatz Field

CURRENT METAR :
  • 311054Z AUTO 00000KT 10SM CLR 02/00 A3044 RMK AO2 SLP317 T00220000

EXPIRED METARs :
  • 310954Z AUTO 36004KT 10SM CLR 03/M01 A3043 RMK AO2 SLP311 T00281011
  • 310854Z AUTO 03003KT 10SM OVC045 04/M01 A3041 RMK AO2 SLP304 T00391006 53019

TAF KRDG
Valid from the 31 at 06:00 until the 01 at 06:00 UTC


310538Z 3106/0106 VRB04KT P6SM FEW060
FM312000 15005KT P6SM SKC
FM010200 VRB04KT P6SM SKC
KZNY FIR / North America



MET'MAP, your aeronautical weather chart ! - Copyright ORBIFLY December 2007 - Disclaimer

ORBIFLY MET'MAP TEAM :

Programming & Development : Alexandra Zaïnal
Concept & original design : Baudouin d'Aumeries
Assistance for programming : Marc-Olivier Méhu
Technical & hardware support : Manuel Goepfert

Contact : metmap@orbifly.com




SOURCES & CREDITS :

   NOAA       Earth
Advisory